createdAt,value
2023-04-16T00:01:22.096Z,102359.34
2023-04-16T00:03:48.758Z,102371.88
2023-04-16T00:06:15.384Z,102365.91
2023-04-16T00:08:43.492Z,102364.28
2023-04-16T00:11:09.879Z,102369.41
2023-04-16T00:13:36.766Z,102367.75
2023-04-16T00:16:03.198Z,102369.00
2023-04-16T00:18:29.579Z,102370.03
2023-04-16T00:20:56.086Z,102367.38
2023-04-16T00:23:22.453Z,102366.75
2023-04-16T00:25:48.902Z,102376.41
2023-04-16T00:28:15.304Z,102371.06
2023-04-16T00:30:41.706Z,102366.75
2023-04-16T00:33:08.361Z,102367.59
2023-04-16T00:35:34.970Z,102376.41
2023-04-16T00:38:01.376Z,102367.38
2023-04-16T00:40:29.105Z,102365.50
2023-04-16T00:42:55.730Z,102369.22
2023-04-16T00:45:22.176Z,102373.13
2023-04-16T00:47:48.865Z,102378.47
2023-04-16T00:50:15.831Z,102374.78
2023-04-16T00:52:42.820Z,102373.13
2023-04-16T00:55:13.364Z,102369.84
2023-04-16T00:57:39.861Z,102367.00
2023-04-16T01:00:07.009Z,102363.28
2023-04-16T01:02:34.304Z,102369.22
2023-04-16T01:05:02.117Z,102370.03
2023-04-16T01:07:28.659Z,102365.50
2023-04-16T01:09:55.277Z,102364.09
2023-04-16T01:12:21.891Z,102373.13
2023-04-16T01:14:48.587Z,102382.19
2023-04-16T01:17:15.027Z,102378.72
2023-04-16T01:19:42.552Z,102368.41
2023-04-16T01:22:09.051Z,102366.34
2023-04-16T01:24:36.377Z,102367.16
2023-04-16T01:27:03.043Z,102374.78
2023-04-16T01:29:29.512Z,102379.09
2023-04-16T01:31:56.096Z,102374.78
2023-04-16T01:34:22.571Z,102373.53
2023-04-16T01:36:49.007Z,102371.47
2023-04-16T01:39:16.328Z,102382.75
2023-04-16T01:41:43.627Z,102381.09
2023-04-16T01:44:10.212Z,102385.41
2023-04-16T01:46:37.824Z,102380.91
2023-04-16T01:49:05.502Z,102382.97
2023-04-16T01:51:32.229Z,102372.91
2023-04-16T01:53:58.975Z,102377.19
2023-04-16T01:56:25.599Z,102374.72
2023-04-16T01:58:52.992Z,102380.69
2023-04-16T02:01:19.975Z,102379.84
2023-04-16T02:03:47.187Z,102383.59
2023-04-16T02:06:14.731Z,102389.13
2023-04-16T02:08:41.714Z,102378.00
2023-04-16T02:11:08.228Z,102379.06
2023-04-16T02:13:34.763Z,102383.34
2023-04-16T02:16:01.182Z,102378.63
2023-04-16T02:18:27.909Z,102380.69
2023-04-16T02:20:54.293Z,102381.28
2023-04-16T02:23:20.823Z,102370.81
2023-04-16T02:25:47.319Z,102371.63
2023-04-16T02:28:16.364Z,102372.44
2023-04-16T02:30:43.696Z,102370.00
2023-04-16T02:33:11.664Z,102381.91
2023-04-16T02:35:39.638Z,102375.72
2023-04-16T02:38:06.738Z,102374.69
2023-04-16T02:40:33.714Z,102379.22
2023-04-16T02:43:00.469Z,102372.63
2023-04-16T02:45:26.931Z,102380.41
2023-04-16T02:47:53.344Z,102374.28
2023-04-16T02:50:19.927Z,102383.94
2023-04-16T02:52:46.332Z,102376.94
2023-04-16T02:55:12.746Z,102382.28
2023-04-16T02:57:39.180Z,102384.34
2023-04-16T03:00:06.196Z,102386.00
2023-04-16T03:02:32.826Z,102381.44
2023-04-16T03:04:59.326Z,102383.94
2023-04-16T03:07:26.061Z,102383.09
2023-04-16T03:09:52.511Z,102381.44
2023-04-16T03:12:18.988Z,102388.66
2023-04-16T03:14:45.336Z,102392.97
2023-04-16T03:17:12.078Z,102389.28
2023-04-16T03:19:38.551Z,102394.81
2023-04-16T03:22:04.973Z,102397.47
2023-04-16T03:24:32.213Z,102398.50
2023-04-16T03:26:58.922Z,102396.44
2023-04-16T03:29:26.630Z,102402.03
2023-04-16T03:31:53.194Z,102402.25
2023-04-16T03:34:19.564Z,102409.19
2023-04-16T03:36:45.891Z,102406.34
2023-04-16T03:39:12.377Z,102400.16
2023-04-16T03:41:38.730Z,102408.63
2023-04-16T03:44:05.218Z,102411.50
2023-04-16T03:46:31.624Z,102404.09
2023-04-16T03:48:58.004Z,102411.69
2023-04-16T03:51:24.801Z,102414.34
2023-04-16T03:53:51.125Z,102410.66
2023-04-16T03:56:17.775Z,102403.84
2023-04-16T03:58:44.190Z,102413.75
2023-04-16T04:01:10.612Z,102415.81
2023-04-16T04:03:37.140Z,102406.16
2023-04-16T04:06:09.926Z,102406.97
2023-04-16T04:08:36.394Z,102416.03
2023-04-16T04:11:02.819Z,102414.38
2023-04-16T04:13:29.218Z,102418.69
2023-04-16T04:15:55.707Z,102416.03
2023-04-16T04:18:22.131Z,102416.44
2023-04-16T04:20:48.637Z,102415.19
2023-04-16T04:23:15.409Z,102416.22
2023-04-16T04:25:41.792Z,102425.69
2023-04-16T04:28:08.237Z,102422.19
2023-04-16T04:30:35.836Z,102422.41
2023-04-16T04:33:02.467Z,102417.88
2023-04-16T04:35:29.077Z,102426.91
2023-04-16T04:37:55.677Z,102429.00
2023-04-16T04:40:22.176Z,102438.06
2023-04-16T04:42:48.513Z,102434.78
2023-04-16T04:45:15.191Z,102435.56
2023-04-16T04:47:41.796Z,102439.88
2023-04-16T04:50:08.573Z,102441.94
2023-04-16T04:52:34.961Z,102448.13
2023-04-16T04:55:01.613Z,102445.44
2023-04-16T04:57:27.925Z,102447.91
2023-04-16T04:59:54.255Z,102447.28
2023-04-16T05:02:20.811Z,102449.16
2023-04-16T05:04:47.368Z,102442.97
2023-04-16T05:07:13.776Z,102450.56
2023-04-16T05:09:40.489Z,102445.44
2023-04-16T05:12:07.063Z,102446.25
2023-04-16T05:14:33.544Z,102446.47
2023-04-16T05:16:59.949Z,102449.75
2023-04-16T05:19:26.435Z,102450.56
2023-04-16T05:21:52.938Z,102455.28
2023-04-16T05:24:20.008Z,102450.53
2023-04-16T05:26:46.348Z,102442.38
2023-04-16T05:29:12.689Z,102443.56
2023-04-16T05:31:39.101Z,102453.22
2023-04-16T05:34:05.464Z,102451.38
2023-04-16T05:36:31.791Z,102458.78
2023-04-16T05:38:58.183Z,102457.53
2023-04-16T05:41:24.635Z,102457.28
2023-04-16T05:43:51.062Z,102459.56
2023-04-16T05:46:17.467Z,102457.72
2023-04-16T05:48:43.939Z,102470.63
2023-04-16T05:51:10.321Z,102464.47
2023-04-16T05:53:36.758Z,102474.13
2023-04-16T05:56:03.242Z,102471.22
2023-04-16T05:58:29.596Z,102480.09
2023-04-16T06:00:55.993Z,102475.78
2023-04-16T06:03:22.525Z,102474.13
2023-04-16T06:05:48.962Z,102483.56
2023-04-16T06:08:15.395Z,102484.59
2023-04-16T06:10:41.785Z,102482.53
2023-04-16T06:13:08.242Z,102477.19
2023-04-16T06:15:34.614Z,102483.94
2023-04-16T06:18:01.193Z,102485.81
2023-04-16T06:20:27.809Z,102486.63
2023-04-16T06:22:55.467Z,102487.84
2023-04-16T06:25:21.929Z,102488.88
2023-04-16T06:27:48.327Z,102495.66
2023-04-16T06:30:15.863Z,102499.78
2023-04-16T06:32:43.163Z,102503.69
2023-04-16T06:35:09.845Z,102505.31
2023-04-16T06:37:36.180Z,102501.81
2023-04-16T06:40:02.580Z,102504.72
2023-04-16T06:42:29.634Z,102506.34
2023-04-16T06:44:56.108Z,102509.44
2023-04-16T06:47:22.549Z,102508.59
2023-04-16T06:49:48.919Z,102512.91
2023-04-16T06:52:15.328Z,102508.19
2023-04-16T06:54:41.842Z,102516.81
2023-04-16T06:57:08.219Z,102513.72
2023-04-16T06:59:34.608Z,102512.47
2023-04-16T07:02:01.341Z,102526.03
2023-04-16T07:04:27.982Z,102520.66
2023-04-16T07:06:54.368Z,102523.34
2023-04-16T07:09:20.925Z,102525.59
2023-04-16T07:11:47.372Z,102530.94
2023-04-16T07:14:13.735Z,102530.09
2023-04-16T07:16:40.587Z,102529.06
2023-04-16T07:19:07.057Z,102540.81
2023-04-16T07:21:33.445Z,102549.22
2023-04-16T07:23:59.817Z,102538.28
2023-04-16T07:26:26.618Z,102539.50
2023-04-16T07:28:52.920Z,102539.72
2023-04-16T07:31:19.311Z,102551.84
2023-04-16T07:33:45.712Z,102546.28
2023-04-16T07:36:12.365Z,102546.28
2023-04-16T07:38:38.714Z,102546.28
2023-04-16T07:41:05.399Z,102548.75
2023-04-16T07:43:31.714Z,102554.09
2023-04-16T07:45:58.098Z,102555.75
2023-04-16T07:48:24.562Z,102561.69
2023-04-16T07:50:50.876Z,102562.50
2023-04-16T07:53:17.224Z,102564.38
2023-04-16T07:55:43.674Z,102563.34
2023-04-16T07:58:10.228Z,102570.53
2023-04-16T08:00:36.663Z,102575.66
2023-04-16T08:03:03.684Z,102570.91
2023-04-16T08:05:30.433Z,102568.41
2023-04-16T08:07:56.810Z,102578.69
2023-04-16T08:10:23.256Z,102585.03
2023-04-16T08:12:49.661Z,102581.53
2023-04-16T08:15:16.009Z,102585.47
2023-04-16T08:17:42.474Z,102584.59
2023-04-16T08:20:09.852Z,102593.22
2023-04-16T08:22:37.045Z,102596.72
2023-04-16T08:25:04.165Z,102596.06
2023-04-16T08:27:30.698Z,102595.88
2023-04-16T08:29:57.120Z,102606.00
2023-04-16T08:32:23.562Z,102605.78
2023-04-16T08:34:50.067Z,102597.53
2023-04-16T08:37:16.507Z,102604.34
2023-04-16T08:39:42.892Z,102608.00
2023-04-16T08:42:18.331Z,102606.50
2023-04-16T08:44:49.582Z,102614.09
2023-04-16T08:47:16.395Z,102613.25
2023-04-16T08:49:46.169Z,102617.78
2023-04-16T08:52:22.471Z,102615.28
2023-04-16T08:55:03.651Z,102610.53
2023-04-16T08:57:38.537Z,102615.00
2023-04-16T09:00:07.569Z,102625.47
2023-04-16T09:02:34.782Z,102622.13
2023-04-16T09:05:06.511Z,102617.13
2023-04-16T09:07:34.865Z,102624.88
2023-04-16T09:10:04.148Z,102611.28
2023-04-16T09:12:31.660Z,102619.09
2023-04-16T09:15:01.177Z,102622.56
2023-04-16T09:17:28.120Z,102627.00
2023-04-16T09:19:54.999Z,102631.94
2023-04-16T09:22:21.415Z,102623.06
2023-04-16T09:24:47.843Z,102628.66
2023-04-16T09:27:14.257Z,102627.63
2023-04-16T09:29:41.441Z,102629.63
2023-04-16T09:32:10.254Z,102631.88
2023-04-16T09:34:57.755Z,102634.94
2023-04-16T09:37:26.055Z,102637.38
2023-04-16T09:39:55.418Z,102643.72
2023-04-16T09:42:23.707Z,102639.34
2023-04-16T09:44:50.188Z,102648.19
2023-04-16T09:47:16.909Z,102646.13
2023-04-16T09:49:43.697Z,102646.84
2023-04-16T09:52:17.303Z,102655.28
2023-04-16T09:54:51.128Z,102653.41
2023-04-16T09:57:21.971Z,102662.50
2023-04-16T09:59:57.726Z,102660.25
2023-04-16T10:02:31.109Z,102657.56
2023-04-16T10:04:57.850Z,102668.22
2023-04-16T10:07:28.712Z,102658.19
2023-04-16T10:09:55.943Z,102660.66
2023-04-16T10:12:22.257Z,102661.09
2023-04-16T10:14:50.303Z,102662.50
2023-04-16T10:17:17.116Z,102659.97
2023-04-16T10:19:43.718Z,102662.78
2023-04-16T10:22:11.280Z,102663.16
2023-04-16T10:24:38.674Z,102663.34
2023-04-16T10:27:05.036Z,102664.75
2023-04-16T10:29:32.854Z,102665.84
2023-04-16T10:32:00.526Z,102669.25
2023-04-16T10:34:27.575Z,102671.69
2023-04-16T10:36:54.941Z,102668.19
2023-04-16T10:39:23.471Z,102665.91
2023-04-16T10:41:51.270Z,102672.06
2023-04-16T10:44:19.602Z,102674.53
2023-04-16T10:46:52.068Z,102678.16
2023-04-16T10:49:25.852Z,102679.53
2023-04-16T10:51:55.898Z,102669.56
2023-04-16T10:54:30.114Z,102673.28
2023-04-16T10:56:58.829Z,102674.91
2023-04-16T10:59:29.946Z,102674.00
2023-04-16T11:01:59.097Z,102674.53
2023-04-16T11:04:25.560Z,102672.22
2023-04-16T11:07:16.960Z,102676.31
2023-04-16T11:09:47.698Z,102675.13
2023-04-16T11:12:18.915Z,102677.56
2023-04-16T11:14:50.501Z,102676.09
2023-04-16T11:17:17.575Z,102685.47
2023-04-16T11:19:44.413Z,102674.28
2023-04-16T11:22:16.950Z,102672.97
2023-04-16T11:24:47.608Z,102688.91
2023-04-16T11:27:15.231Z,102685.41
2023-04-16T11:29:42.265Z,102678.63
2023-04-16T11:32:08.692Z,102687.44
2023-04-16T11:34:35.147Z,102686.94
2023-04-16T11:37:01.508Z,102687.34
2023-04-16T11:39:27.864Z,102685.78
2023-04-16T11:41:55.468Z,102690.31
2023-04-16T11:44:24.149Z,102685.09
2023-04-16T11:46:51.872Z,102688.47
2023-04-16T11:49:27.230Z,102677.22
2023-04-16T11:51:53.586Z,102683.75
2023-04-16T11:54:21.060Z,102683.81
2023-04-16T11:56:48.680Z,102680.44
2023-04-16T11:59:17.380Z,102685.47
2023-04-16T12:01:52.386Z,102689.19
2023-04-16T12:04:20.818Z,102686.19
2023-04-16T12:07:06.135Z,102692.03
2023-04-16T12:09:32.719Z,102688.41
2023-04-16T12:11:59.047Z,102697.34
2023-04-16T12:14:25.437Z,102689.19
2023-04-16T12:16:51.993Z,102696.69
2023-04-16T12:19:18.765Z,102694.97
2023-04-16T12:21:47.120Z,102696.72
2023-04-16T12:24:16.214Z,102706.56
2023-04-16T12:26:57.376Z,102700.88
2023-04-16T12:29:26.262Z,102705.88
2023-04-16T12:31:53.509Z,102705.28
2023-04-16T12:34:21.543Z,102707.16
2023-04-16T12:37:10.547Z,102707.03
2023-04-16T12:39:36.928Z,102701.28
2023-04-16T12:42:05.342Z,102706.44
2023-04-16T12:44:31.837Z,102712.03
2023-04-16T12:46:58.159Z,102713.88
2023-04-16T12:49:24.531Z,102715.84
2023-04-16T12:51:50.882Z,102706.38
2023-04-16T12:54:17.283Z,102711.75
2023-04-16T12:56:43.688Z,102709.44
2023-04-16T13:01:37.199Z,102711.53
2023-04-16T13:04:04.108Z,102702.88
2023-04-16T13:06:33.647Z,102709.00
2023-04-16T13:09:00.633Z,102706.78
2023-04-16T13:11:27.398Z,102711.50
2023-04-16T13:13:53.773Z,102707.88
2023-04-16T13:16:20.219Z,102716.19
2023-04-16T13:18:46.709Z,102711.19
2023-04-16T13:21:13.177Z,102710.72
2023-04-16T13:23:39.672Z,102700.34
2023-04-16T13:26:06.191Z,102705.84
2023-04-16T13:28:32.577Z,102701.28
2023-04-16T13:30:59.485Z,102710.72
2023-04-16T13:33:26.013Z,102698.63
2023-04-16T13:35:52.419Z,102699.34
2023-04-16T13:38:18.878Z,102707.97
2023-04-16T13:40:45.363Z,102706.44
2023-04-16T13:43:13.628Z,102714.97
2023-04-16T13:45:40.269Z,102710.72
2023-04-16T13:48:06.734Z,102709.78
2023-04-16T13:50:33.218Z,102711.09
2023-04-16T13:52:59.602Z,102708.50
2023-04-16T13:55:26.134Z,102703.97
2023-04-16T13:57:53.365Z,102704.31
2023-04-16T14:00:20.382Z,102709.47
2023-04-16T14:02:48.591Z,102706.78
2023-04-16T14:05:15.532Z,102710.78
2023-04-16T14:07:42.019Z,102698.88
2023-04-16T14:10:08.931Z,102702.16
2023-04-16T14:12:36.499Z,102701.44
2023-04-16T14:15:04.419Z,102704.47
2023-04-16T14:17:30.945Z,102699.47
2023-04-16T14:19:57.328Z,102706.34
2023-04-16T14:22:23.813Z,102701.94
2023-04-16T14:24:50.243Z,102701.94
2023-04-16T14:27:17.010Z,102701.28
2023-04-16T14:29:44.337Z,102703.50
2023-04-16T14:32:10.839Z,102704.31
2023-04-16T14:34:37.289Z,102698.94
2023-04-16T14:37:04.212Z,102704.53
2023-04-16T14:39:31.018Z,102707.75
2023-04-16T14:41:57.364Z,102708.59
2023-04-16T14:44:23.924Z,102711.75
2023-04-16T14:46:50.398Z,102708.84
2023-04-16T14:49:17.065Z,102705.06
2023-04-16T14:51:45.799Z,102699.59
2023-04-16T14:54:12.189Z,102702.03
2023-04-16T14:56:38.547Z,102695.97
2023-04-16T14:59:04.889Z,102693.44
2023-04-16T15:01:32.190Z,102698.81
2023-04-16T15:04:01.440Z,102696.72
2023-04-16T15:06:28.690Z,102698.81
2023-04-16T15:08:55.200Z,102690.97
2023-04-16T15:11:21.541Z,102688.75
2023-04-16T15:13:47.898Z,102695.44
2023-04-16T15:16:14.358Z,102691.91
2023-04-16T15:18:40.885Z,102693.31
2023-04-16T15:21:07.259Z,102693.19
2023-04-16T15:23:33.659Z,102692.97
2023-04-16T15:26:00.114Z,102692.72
2023-04-16T15:28:27.079Z,102696.00
2023-04-16T15:30:53.456Z,102696.59
2023-04-16T15:33:22.979Z,102695.91
2023-04-16T15:35:51.409Z,102705.47
2023-04-16T15:38:18.731Z,102698.34
2023-04-16T15:40:45.179Z,102693.56
2023-04-16T15:43:11.597Z,102706.38
2023-04-16T15:45:37.934Z,102696.19
2023-04-16T15:48:05.652Z,102703.69
2023-04-16T15:50:33.035Z,102695.63
2023-04-16T15:52:59.420Z,102687.91
2023-04-16T15:55:26.447Z,102699.00
2023-04-16T15:57:52.811Z,102699.56
2023-04-16T16:00:21.163Z,102689.88
2023-04-16T16:02:47.812Z,102693.41
2023-04-16T16:05:14.837Z,102699.56
2023-04-16T16:07:41.841Z,102701.31
2023-04-16T16:10:10.030Z,102693.75
2023-04-16T16:12:37.295Z,102696.88
2023-04-16T16:15:04.655Z,102693.41
2023-04-16T16:17:31.088Z,102694.31
2023-04-16T16:19:58.769Z,102691.75
2023-04-16T16:22:25.653Z,102692.34
2023-04-16T16:24:52.777Z,102700.50
2023-04-16T16:27:19.798Z,102697.78
2023-04-16T16:29:46.445Z,102700.22
2023-04-16T16:32:13.355Z,102694.81
2023-04-16T16:34:39.686Z,102696.91
2023-04-16T16:37:06.336Z,102699.81
2023-04-16T16:39:33.137Z,102697.25
2023-04-16T16:41:59.943Z,102698.97
2023-04-16T16:44:27.072Z,102696.63
2023-04-16T16:46:53.964Z,102694.09
2023-04-16T16:49:20.420Z,102690.59
2023-04-16T16:51:47.448Z,102698.63
2023-04-16T16:54:14.333Z,102701.56
2023-04-16T16:56:40.890Z,102701.75
2023-04-16T16:59:08.895Z,102708.84
2023-04-16T17:01:35.806Z,102701.22
2023-04-16T17:04:02.526Z,102713.00
2023-04-16T17:06:29.000Z,102708.94
2023-04-16T17:08:55.821Z,102713.25
2023-04-16T17:11:22.218Z,102711.38
2023-04-16T17:13:48.586Z,102714.28
2023-04-16T17:16:16.651Z,102714.00
2023-04-16T17:18:43.182Z,102718.63
2023-04-16T17:21:09.583Z,102715.41
2023-04-16T17:23:36.096Z,102724.13
2023-04-16T17:26:02.521Z,102723.34
2023-04-16T17:28:28.922Z,102729.31
2023-04-16T17:30:56.773Z,102735.97
2023-04-16T17:33:23.280Z,102736.28
2023-04-16T17:35:49.660Z,102730.19
2023-04-16T17:38:16.053Z,102735.75
2023-04-16T17:40:42.494Z,102735.75
2023-04-16T17:43:08.972Z,102747.94
2023-04-16T17:45:35.387Z,102745.09
2023-04-16T17:48:01.866Z,102749.63
2023-04-16T17:50:28.343Z,102755.81
2023-04-16T17:52:54.752Z,102753.81
2023-04-16T17:55:21.242Z,102759.59
2023-04-16T17:57:47.637Z,102759.00
2023-04-16T18:00:14.433Z,102758.25
2023-04-16T18:02:41.424Z,102754.78
2023-04-16T18:05:08.731Z,102747.63
2023-04-16T18:07:36.334Z,102760.69
2023-04-16T18:10:02.874Z,102770.81
2023-04-16T18:12:29.252Z,102763.81
2023-04-16T18:14:55.738Z,102768.19
2023-04-16T18:17:22.791Z,102765.75
2023-04-16T18:19:49.278Z,102772.19
2023-04-16T18:22:15.760Z,102776.34
2023-04-16T18:24:42.085Z,102770.56
2023-04-16T18:27:08.547Z,102773.91
2023-04-16T18:29:35.372Z,102773.09
2023-04-16T18:32:04.156Z,102783.19
2023-04-16T18:34:31.636Z,102787.72
2023-04-16T18:36:58.120Z,102789.63
2023-04-16T18:39:24.516Z,102786.56
2023-04-16T18:41:50.841Z,102788.59
2023-04-16T18:44:17.703Z,102789.41
2023-04-16T18:46:44.149Z,102792.31
2023-04-16T18:49:10.836Z,102800.75
2023-04-16T18:51:37.346Z,102807.78
2023-04-16T18:54:03.909Z,102812.50
2023-04-16T18:56:31.078Z,102806.34
2023-04-16T18:58:57.476Z,102812.72
2023-04-16T19:01:23.919Z,102812.91
2023-04-16T19:03:50.500Z,102802.41
2023-04-16T19:06:17.168Z,102806.09
2023-04-16T19:08:43.584Z,102815.00
2023-04-16T19:11:09.896Z,102816.22
2023-04-16T19:13:38.039Z,102813.78
2023-04-16T19:16:11.155Z,102813.78
2023-04-16T19:18:38.853Z,102815.84
2023-04-16T19:21:06.860Z,102820.00
2023-04-16T19:23:33.182Z,102817.13
2023-04-16T19:26:01.215Z,102817.91
2023-04-16T19:28:28.269Z,102812.56
2023-04-16T19:30:54.756Z,102814.03
2023-04-16T19:33:21.235Z,102815.88
2023-04-16T19:35:47.608Z,102820.63
2023-04-16T19:38:14.052Z,102814.69
2023-04-16T19:40:41.010Z,102813.03
2023-04-16T19:43:07.530Z,102819.81
2023-04-16T19:45:33.991Z,102814.88
2023-04-16T19:48:00.548Z,102819.22
2023-04-16T19:50:26.978Z,102818.84
2023-04-16T19:52:53.378Z,102817.81
2023-04-16T19:55:19.945Z,102822.13
2023-04-16T19:57:47.814Z,102829.31
2023-04-16T20:00:14.633Z,102830.13
2023-04-16T20:02:41.247Z,102826.44
2023-04-16T20:05:08.224Z,102823.53
2023-04-16T20:07:34.674Z,102827.84
2023-04-16T20:10:02.564Z,102829.91
2023-04-16T20:12:28.932Z,102829.09
2023-04-16T20:14:55.303Z,102833.22
2023-04-16T20:17:21.668Z,102833.22
2023-04-16T20:19:49.523Z,102833.63
2023-04-16T20:22:18.214Z,102825.59
2023-04-16T20:24:47.953Z,102835.25
2023-04-16T20:27:14.992Z,102834.25
2023-04-16T20:29:41.792Z,102820.06
2023-04-16T20:32:08.218Z,102827.88
2023-04-16T20:34:34.570Z,102836.09
2023-04-16T20:37:00.913Z,102829.13
2023-04-16T20:39:27.358Z,102829.53
2023-04-16T20:41:56.658Z,102830.78
2023-04-16T20:44:26.315Z,102828.13
2023-04-16T20:46:54.973Z,102824.84
2023-04-16T20:49:21.453Z,102817.00
2023-04-16T20:51:47.901Z,102819.91
2023-04-16T20:54:14.320Z,102813.72
2023-04-16T20:56:40.808Z,102817.84
2023-04-16T20:59:07.148Z,102819.50
2023-04-16T21:01:33.544Z,102810.22
2023-04-16T21:04:00.178Z,102811.88
2023-04-16T21:06:27.506Z,102808.78
2023-04-16T21:08:53.877Z,102807.13
2023-04-16T21:11:20.718Z,102812.69
2023-04-16T21:13:47.146Z,102811.25
2023-04-16T21:16:13.496Z,102814.56
2023-04-16T21:18:39.899Z,102819.69
2023-04-16T21:21:06.592Z,102815.38
2023-04-16T21:23:32.916Z,102814.97
2023-04-16T21:25:59.277Z,102813.94
2023-04-16T21:28:25.779Z,102812.72
2023-04-16T21:30:52.863Z,102808.59
2023-04-16T21:33:19.342Z,102802.03
2023-04-16T21:35:51.271Z,102810.47
2023-04-16T21:38:17.620Z,102805.94
2023-04-16T21:40:45.896Z,102803.88
2023-04-16T21:43:12.236Z,102805.13
2023-04-16T21:45:38.649Z,102807.97
2023-04-16T21:48:05.383Z,102808.19
2023-04-16T21:50:31.742Z,102816.84
2023-04-16T21:52:58.108Z,102812.94
2023-04-16T21:55:24.442Z,102816.44
2023-04-16T21:57:50.845Z,102814.97
2023-04-16T22:00:18.237Z,102821.97
2023-04-16T22:02:44.835Z,102817.03
2023-04-16T22:05:11.513Z,102812.94
2023-04-16T22:07:38.360Z,102811.50
2023-04-16T22:10:05.093Z,102809.22
2023-04-16T22:12:31.601Z,102809.63
2023-04-16T22:15:02.838Z,102810.25
2023-04-16T22:17:30.137Z,102807.78
2023-04-16T22:20:00.271Z,102806.78
2023-04-16T22:22:26.596Z,102810.25
2023-04-16T22:24:53.372Z,102816.84
2023-04-16T22:27:19.793Z,102807.59
2023-04-16T22:29:46.164Z,102801.19
2023-04-16T22:32:12.596Z,102807.97
2023-04-16T22:34:40.159Z,102801.41
2023-04-16T22:37:07.926Z,102808.59
2023-04-16T22:39:34.724Z,102809.81
2023-04-16T22:42:02.381Z,102807.78
2023-04-16T22:44:28.725Z,102811.06
2023-04-16T22:46:55.117Z,102803.84
2023-04-16T22:49:21.549Z,102812.69
2023-04-16T22:51:47.941Z,102806.94
2023-04-16T22:54:14.375Z,102804.06
2023-04-16T22:56:41.034Z,102810.84
2023-04-16T22:59:07.966Z,102801.81
2023-04-16T23:01:34.815Z,102802.63
2023-04-16T23:04:01.311Z,102802.63
2023-04-16T23:06:27.770Z,102799.75
2023-04-16T23:08:54.199Z,102804.25
2023-04-16T23:11:20.833Z,102809.22
2023-04-16T23:13:47.236Z,102810.00
2023-04-16T23:16:13.735Z,102809.81
2023-04-16T23:18:40.189Z,102810.63
2023-04-16T23:21:06.572Z,102807.16
2023-04-16T23:23:33.009Z,102814.16
2023-04-16T23:26:00.885Z,102817.44
2023-04-16T23:28:27.268Z,102811.47
2023-04-16T23:30:53.768Z,102816.19
2023-04-16T23:33:20.212Z,102818.25
2023-04-16T23:35:47.397Z,102816.59
2023-04-16T23:38:13.789Z,102817.63
2023-04-16T23:40:40.320Z,102814.31
2023-04-16T23:43:06.679Z,102820.28
2023-04-16T23:45:33.179Z,102823.81
2023-04-16T23:47:59.560Z,102826.66
2023-04-16T23:50:26.135Z,102820.50
2023-04-16T23:52:52.513Z,102824.84
2023-04-16T23:55:18.995Z,102820.91
2023-04-16T23:57:45.488Z,102820.09
